createdAt,value
2022-08-26T00:00:48.476Z,0.00
2022-08-26T00:01:48.514Z,0.00
2022-08-26T00:02:48.570Z,0.00
2022-08-26T00:03:48.426Z,0.00
2022-08-26T00:04:48.386Z,0.00
2022-08-26T00:05:48.381Z,0.00
2022-08-26T00:06:48.370Z,0.00
2022-08-26T00:07:48.341Z,0.00
2022-08-26T00:08:48.334Z,0.00
2022-08-26T00:09:48.318Z,0.00
2022-08-26T00:10:48.327Z,0.00
2022-08-26T00:11:48.290Z,0.00
2022-08-26T00:12:48.296Z,0.00
2022-08-26T00:13:49.476Z,0.00
2022-08-26T00:14:48.254Z,0.00
2022-08-26T00:15:48.251Z,0.00
2022-08-26T00:16:49.045Z,0.00
2022-08-26T00:17:48.214Z,0.00
2022-08-26T00:18:48.200Z,0.00
2022-08-26T00:19:48.187Z,0.00
2022-08-26T00:20:48.639Z,0.00
2022-08-26T00:21:48.725Z,0.00
2022-08-26T00:22:48.150Z,0.00
2022-08-26T00:23:48.137Z,0.00
2022-08-26T00:24:48.208Z,0.00
2022-08-26T00:25:48.142Z,0.00
2022-08-26T00:26:48.111Z,0.00
2022-08-26T00:27:48.082Z,0.00
2022-08-26T00:28:48.079Z,0.00
2022-08-26T00:29:48.060Z,0.00
2022-08-26T00:30:48.059Z,0.00
2022-08-26T00:31:48.071Z,0.00
2022-08-26T00:32:48.023Z,0.00
2022-08-26T00:33:48.007Z,0.00
2022-08-26T00:34:54.033Z,0.00
2022-08-26T00:35:48.027Z,0.00
2022-08-26T00:36:51.914Z,0.00
2022-08-26T00:37:48.632Z,0.00
2022-08-26T00:38:48.069Z,0.00
2022-08-26T00:39:48.014Z,0.00
2022-08-26T00:40:47.938Z,0.00
2022-08-26T00:41:47.935Z,0.00
2022-08-26T00:42:47.906Z,0.00
2022-08-26T00:43:48.149Z,0.00
2022-08-26T00:44:47.887Z,0.00
2022-08-26T00:45:47.967Z,0.00
2022-08-26T00:46:47.900Z,0.00
2022-08-26T00:47:47.859Z,0.00
2022-08-26T00:48:47.828Z,0.00
2022-08-26T00:49:47.829Z,0.00
2022-08-26T00:50:47.866Z,0.00
2022-08-26T00:51:47.803Z,0.00
2022-08-26T00:52:48.264Z,0.00
2022-08-26T00:53:47.768Z,0.00
2022-08-26T00:54:47.753Z,0.00
2022-08-26T00:55:47.768Z,0.00
2022-08-26T00:56:47.728Z,0.00
2022-08-26T00:57:47.715Z,0.00
2022-08-26T00:58:47.699Z,0.00
2022-08-26T00:59:47.867Z,0.00
2022-08-26T01:00:47.745Z,0.00
2022-08-26T01:01:47.735Z,0.00
2022-08-26T01:02:47.679Z,0.00
2022-08-26T01:03:47.642Z,0.00
2022-08-26T01:04:47.620Z,0.00
2022-08-26T01:05:47.625Z,0.00
2022-08-26T01:06:47.592Z,0.00
2022-08-26T01:07:47.596Z,0.00
2022-08-26T01:08:47.565Z,0.00
2022-08-26T01:09:47.556Z,0.00
2022-08-26T01:10:47.575Z,0.00
2022-08-26T01:11:47.547Z,0.00
2022-08-26T01:12:47.532Z,0.00
2022-08-26T01:13:47.520Z,0.00
2022-08-26T01:14:47.493Z,0.00
2022-08-26T01:15:47.509Z,0.00
2022-08-26T01:16:47.500Z,0.00
2022-08-26T01:17:47.532Z,0.00
2022-08-26T01:18:47.455Z,0.00
2022-08-26T01:19:47.426Z,0.00
2022-08-26T01:20:47.451Z,0.00
2022-08-26T01:21:47.403Z,0.00
2022-08-26T01:22:47.409Z,0.00
2022-08-26T01:23:47.371Z,0.00
2022-08-26T01:24:47.375Z,0.00
2022-08-26T01:25:47.344Z,0.00
2022-08-26T01:26:47.387Z,0.00
2022-08-26T01:29:55.432Z,0.00
2022-08-26T01:30:55.945Z,0.00
2022-08-26T01:31:56.017Z,0.00
2022-08-26T01:32:55.888Z,0.00
2022-08-26T01:33:55.892Z,0.00
2022-08-26T01:34:55.854Z,0.00
2022-08-26T01:35:55.857Z,0.00
2022-08-26T01:36:55.855Z,0.00
2022-08-26T01:37:55.822Z,0.00
2022-08-26T01:38:55.838Z,0.00
2022-08-26T01:39:55.812Z,0.00
2022-08-26T01:40:55.794Z,0.00
2022-08-26T01:41:55.778Z,0.00
2022-08-26T01:42:55.745Z,0.00
2022-08-26T01:43:55.733Z,0.00
2022-08-26T01:44:55.736Z,0.00
2022-08-26T01:45:55.754Z,0.00
2022-08-26T01:46:55.717Z,0.00
2022-08-26T01:47:56.749Z,0.00
2022-08-26T01:48:55.692Z,0.00
2022-08-26T01:49:55.697Z,0.00
2022-08-26T01:50:55.672Z,0.00
2022-08-26T01:51:55.651Z,0.00
2022-08-26T01:52:55.633Z,0.00
2022-08-26T01:53:55.606Z,0.00
2022-08-26T01:54:55.607Z,0.00
2022-08-26T01:55:55.602Z,0.00
2022-08-26T01:56:55.574Z,0.00
2022-08-26T01:57:56.330Z,0.00
2022-08-26T01:58:55.541Z,0.00
2022-08-26T01:59:55.529Z,0.00
2022-08-26T02:00:55.582Z,0.00
2022-08-26T02:01:55.512Z,0.00
2022-08-26T02:02:55.491Z,0.00
2022-08-26T02:03:55.475Z,0.00
2022-08-26T02:04:55.524Z,0.00
2022-08-26T02:05:55.494Z,0.00
2022-08-26T02:06:55.441Z,0.00
2022-08-26T02:07:55.426Z,0.00
2022-08-26T02:08:55.422Z,0.00
2022-08-26T02:09:55.413Z,0.00
2022-08-26T02:10:55.404Z,0.00
2022-08-26T02:11:55.385Z,0.00
2022-08-26T02:12:55.378Z,0.00
2022-08-26T02:13:55.352Z,0.00
2022-08-26T02:14:55.335Z,0.00
2022-08-26T02:15:55.440Z,0.00
2022-08-26T02:16:55.312Z,0.00
2022-08-26T02:17:55.307Z,0.00
2022-08-26T02:18:55.289Z,0.00
2022-08-26T02:19:55.313Z,0.00
2022-08-26T02:20:55.278Z,0.00
2022-08-26T02:21:55.243Z,0.00
2022-08-26T02:22:55.235Z,0.00
2022-08-26T02:23:56.043Z,0.00
2022-08-26T02:24:55.212Z,0.00
2022-08-26T02:25:55.236Z,0.00
2022-08-26T02:26:55.221Z,0.00
2022-08-26T02:29:55.763Z,0.00
2022-08-26T02:30:56.771Z,0.00
2022-08-26T02:31:56.740Z,0.00
2022-08-26T02:32:56.725Z,0.00
2022-08-26T02:33:56.728Z,0.00
2022-08-26T02:34:56.699Z,0.00
2022-08-26T02:35:56.705Z,0.00
2022-08-26T02:36:56.673Z,0.00
2022-08-26T02:37:56.656Z,0.00
2022-08-26T02:38:56.650Z,0.00
2022-08-26T02:39:56.650Z,0.00
2022-08-26T02:40:56.643Z,0.00
2022-08-26T02:41:56.611Z,0.00
2022-08-26T02:42:57.065Z,0.00
2022-08-26T02:43:56.591Z,0.00
2022-08-26T02:44:56.566Z,0.00
2022-08-26T02:45:56.569Z,0.00
2022-08-26T02:46:56.587Z,0.00
2022-08-26T02:47:56.547Z,0.00
2022-08-26T02:48:56.525Z,0.00
2022-08-26T02:49:56.520Z,0.00
2022-08-26T02:50:56.515Z,0.00
2022-08-26T02:51:56.492Z,0.00
2022-08-26T02:52:56.464Z,0.00
2022-08-26T02:53:56.446Z,0.00
2022-08-26T02:54:56.490Z,0.00
2022-08-26T02:55:56.436Z,0.00
2022-08-26T02:56:56.441Z,0.00
2022-08-26T02:57:56.421Z,0.00
2022-08-26T02:58:56.384Z,0.00
2022-08-26T02:59:56.388Z,0.00
2022-08-26T03:00:56.435Z,0.00
2022-08-26T03:01:56.434Z,0.00
2022-08-26T03:02:56.326Z,0.00
2022-08-26T03:03:56.308Z,0.00
2022-08-26T03:04:57.529Z,0.00
2022-08-26T03:05:56.308Z,0.00
2022-08-26T03:06:56.313Z,0.00
2022-08-26T03:07:56.267Z,0.00
2022-08-26T03:08:56.258Z,0.00
2022-08-26T03:09:56.231Z,0.00
2022-08-26T03:10:56.232Z,0.00
2022-08-26T03:11:56.230Z,0.00
2022-08-26T03:12:56.214Z,0.00
2022-08-26T03:13:56.179Z,0.00
2022-08-26T03:14:56.218Z,0.00
2022-08-26T03:15:56.256Z,0.00
2022-08-26T03:16:56.153Z,0.00
2022-08-26T03:17:56.146Z,0.00
2022-08-26T03:18:56.187Z,0.00
2022-08-26T03:19:57.295Z,0.00
2022-08-26T03:20:56.112Z,0.00
2022-08-26T03:21:57.960Z,0.00
2022-08-26T03:22:56.106Z,0.00
2022-08-26T03:23:56.074Z,0.00
2022-08-26T03:24:56.031Z,0.00
2022-08-26T03:25:56.084Z,0.00
2022-08-26T03:26:56.014Z,0.00
2022-08-26T03:27:55.996Z,0.00
2022-08-26T03:28:55.994Z,0.00
2022-08-26T03:29:55.972Z,0.00
2022-08-26T03:30:55.994Z,0.00
2022-08-26T03:31:55.937Z,0.00
2022-08-26T03:32:55.942Z,0.00
2022-08-26T03:33:59.201Z,0.00
2022-08-26T03:34:55.956Z,0.00
2022-08-26T03:35:55.914Z,0.00
2022-08-26T03:36:55.897Z,0.00
2022-08-26T03:37:55.869Z,0.00
2022-08-26T03:38:55.844Z,0.00
2022-08-26T03:39:55.905Z,0.00
2022-08-26T03:40:55.848Z,0.00
2022-08-26T03:41:55.849Z,0.00
2022-08-26T03:42:55.814Z,0.00
2022-08-26T03:44:00.965Z,0.00
2022-08-26T03:44:55.879Z,0.00
2022-08-26T03:45:55.759Z,0.00
2022-08-26T03:46:55.810Z,0.00
2022-08-26T03:47:55.728Z,0.00
2022-08-26T03:48:55.714Z,0.00
2022-08-26T03:49:55.703Z,0.00
2022-08-26T03:50:55.689Z,0.00
2022-08-26T03:51:55.692Z,0.00
2022-08-26T03:52:55.662Z,0.00
2022-08-26T03:53:55.647Z,0.00
2022-08-26T03:54:55.633Z,0.00
2022-08-26T03:55:55.627Z,0.00
2022-08-26T03:56:55.627Z,0.00
2022-08-26T03:57:55.596Z,0.00
2022-08-26T03:58:55.579Z,0.00
2022-08-26T03:59:55.584Z,0.00
2022-08-26T04:00:55.930Z,0.00
2022-08-26T04:01:55.603Z,0.00
2022-08-26T04:02:55.510Z,1.00
2022-08-26T04:03:55.526Z,0.00
2022-08-26T04:04:55.509Z,0.00
2022-08-26T04:05:55.491Z,0.00
2022-08-26T04:06:55.495Z,0.00
2022-08-26T04:07:55.430Z,1.00
2022-08-26T04:08:55.393Z,1.00
2022-08-26T04:09:55.446Z,0.00
2022-08-26T04:10:55.419Z,0.00
2022-08-26T04:11:55.381Z,2.00
2022-08-26T04:12:55.335Z,1.00
2022-08-26T04:13:55.339Z,1.00
2022-08-26T04:14:55.364Z,0.00
2022-08-26T04:15:55.356Z,2.00
2022-08-26T04:16:55.499Z,1.00
2022-08-26T04:17:56.105Z,4.00
2022-08-26T04:18:55.291Z,2.00
2022-08-26T04:19:55.249Z,5.00
2022-08-26T04:20:55.233Z,2.00
2022-08-26T04:21:55.238Z,2.00
2022-08-26T04:22:55.246Z,2.00
2022-08-26T04:23:55.198Z,3.00
2022-08-26T04:24:55.179Z,3.00
2022-08-26T04:25:55.172Z,5.00
2022-08-26T04:26:55.165Z,5.00
2022-08-26T04:27:55.154Z,6.00
2022-08-26T04:28:55.147Z,9.00
2022-08-26T04:29:55.448Z,9.00
2022-08-26T04:30:55.327Z,6.00
2022-08-26T04:31:55.381Z,15.00
2022-08-26T04:32:55.079Z,17.00
2022-08-26T04:33:55.108Z,13.00
2022-08-26T04:34:55.036Z,13.00
2022-08-26T04:35:55.036Z,14.00
2022-08-26T04:36:55.049Z,20.00
2022-08-26T04:37:55.029Z,20.00
2022-08-26T04:38:54.990Z,23.00
2022-08-26T04:39:55.054Z,23.00
2022-08-26T04:40:54.958Z,30.00
2022-08-26T04:41:54.976Z,41.00
2022-08-26T04:42:54.991Z,43.00
2022-08-26T04:43:54.930Z,43.00
2022-08-26T04:44:54.910Z,49.00
2022-08-26T04:45:54.917Z,46.00
2022-08-26T04:46:55.021Z,56.00
2022-08-26T04:47:54.879Z,54.00
2022-08-26T04:48:54.872Z,56.00
2022-08-26T04:49:54.860Z,65.00
2022-08-26T04:50:54.921Z,80.00
2022-08-26T04:51:54.853Z,84.00
2022-08-26T04:52:54.803Z,88.00
2022-08-26T04:53:54.794Z,122.00
2022-08-26T04:54:54.773Z,87.00
2022-08-26T04:55:55.249Z,91.00
2022-08-26T04:56:54.810Z,102.00
2022-08-26T04:57:54.750Z,103.00
2022-08-26T04:58:54.744Z,78.00
2022-08-26T04:59:54.722Z,96.00
2022-08-26T05:00:55.129Z,125.00
2022-08-26T05:01:54.748Z,145.00
2022-08-26T05:02:54.680Z,156.00
2022-08-26T05:03:54.706Z,200.00
2022-08-26T05:04:54.645Z,176.00
2022-08-26T05:05:54.633Z,143.00
2022-08-26T05:06:59.276Z,173.00
2022-08-26T05:07:54.618Z,178.00
2022-08-26T05:08:54.591Z,157.00
2022-08-26T05:09:54.590Z,152.00
2022-08-26T05:10:54.574Z,171.00
2022-08-26T05:11:54.580Z,145.00
2022-08-26T05:19:59.169Z,267.00
2022-08-26T05:20:59.760Z,279.00
2022-08-26T05:21:59.731Z,286.00
2022-08-26T05:22:59.714Z,221.00
2022-08-26T05:23:59.690Z,198.00
2022-08-26T05:24:59.682Z,189.00
2022-08-26T05:26:00.363Z,260.00
2022-08-26T05:26:59.690Z,323.00
2022-08-26T05:29:54.444Z,240.00
2022-08-26T05:30:54.214Z,218.00
2022-08-26T05:31:54.179Z,309.00
2022-08-26T05:32:55.408Z,249.00
2022-08-26T05:33:54.142Z,235.00
2022-08-26T05:34:54.119Z,155.00
2022-08-26T05:35:54.130Z,216.00
2022-08-26T05:36:54.103Z,261.00
2022-08-26T05:37:54.082Z,337.00
2022-08-26T05:38:54.071Z,369.00
2022-08-26T05:39:54.124Z,357.00
2022-08-26T05:40:54.099Z,423.00
2022-08-26T05:41:54.032Z,347.00
2022-08-26T05:42:54.019Z,241.00
2022-08-26T05:43:54.021Z,191.00
2022-08-26T05:44:56.026Z,210.00
2022-08-26T05:45:54.052Z,256.00
2022-08-26T05:46:53.974Z,343.00
2022-08-26T05:47:53.963Z,336.00
2022-08-26T05:48:53.970Z,340.00
2022-08-26T05:49:53.934Z,298.00
2022-08-26T05:50:53.979Z,266.00
2022-08-26T05:51:53.898Z,415.00
2022-08-26T05:52:53.889Z,364.00
2022-08-26T05:53:54.740Z,254.00
2022-08-26T05:54:53.934Z,330.00
2022-08-26T05:55:54.155Z,385.00
2022-08-26T05:56:53.877Z,524.00
2022-08-26T05:57:53.844Z,543.00
2022-08-26T05:58:53.811Z,452.00
2022-08-26T05:59:53.796Z,384.00
2022-08-26T06:00:53.822Z,424.00
2022-08-26T06:01:53.842Z,335.00
2022-08-26T06:02:53.835Z,308.00
2022-08-26T06:03:53.750Z,304.00
2022-08-26T06:04:53.849Z,299.00
2022-08-26T06:05:53.744Z,400.00
2022-08-26T06:06:53.732Z,488.00
2022-08-26T06:07:53.730Z,543.00
2022-08-26T06:08:53.696Z,582.00
2022-08-26T06:10:01.632Z,595.00
2022-08-26T06:10:53.722Z,525.00
2022-08-26T06:11:53.711Z,662.00
2022-08-26T06:12:53.644Z,683.00
2022-08-26T06:13:53.625Z,607.00
2022-08-26T06:14:53.612Z,687.00
2022-08-26T06:15:53.643Z,703.00
2022-08-26T06:16:53.570Z,716.00
2022-08-26T06:17:53.586Z,751.00
2022-08-26T06:18:53.560Z,724.00
2022-08-26T06:19:53.556Z,672.00
2022-08-26T06:20:57.773Z,725.00
2022-08-26T06:21:54.882Z,661.00
2022-08-26T06:22:53.508Z,478.00
2022-08-26T06:23:53.494Z,553.00
2022-08-26T06:24:53.500Z,591.00
2022-08-26T06:25:53.489Z,562.00
2022-08-26T06:26:53.479Z,572.00
2022-08-26T06:29:53.997Z,635.00
2022-08-26T06:30:55.062Z,608.00
2022-08-26T06:31:56.180Z,714.00
2022-08-26T06:32:55.012Z,765.00
2022-08-26T06:33:54.937Z,553.00
2022-08-26T06:34:54.924Z,634.00
2022-08-26T06:35:54.922Z,677.00
2022-08-26T06:36:54.901Z,687.00
2022-08-26T06:37:54.876Z,678.00
2022-08-26T06:38:54.870Z,692.00
2022-08-26T06:39:54.921Z,690.00
2022-08-26T06:40:54.866Z,655.00
2022-08-26T06:41:54.827Z,686.00
2022-08-26T06:42:54.823Z,652.00
2022-08-26T06:43:54.804Z,687.00
2022-08-26T06:44:54.787Z,620.00
2022-08-26T06:45:54.848Z,565.00
2022-08-26T06:46:54.820Z,541.00
2022-08-26T06:47:54.745Z,603.00
2022-08-26T06:48:54.736Z,737.00
2022-08-26T06:49:54.721Z,689.00
2022-08-26T06:50:54.747Z,639.00
2022-08-26T06:51:54.745Z,638.00
2022-08-26T06:52:54.704Z,622.00
2022-08-26T06:53:54.673Z,583.00
2022-08-26T06:54:54.704Z,567.00
2022-08-26T06:55:54.708Z,520.00
2022-08-26T06:56:54.628Z,481.00
2022-08-26T06:57:54.617Z,486.00
2022-08-26T06:58:54.604Z,532.00
2022-08-26T06:59:54.585Z,574.00
2022-08-26T07:00:54.597Z,562.00
2022-08-26T07:01:54.849Z,589.00
2022-08-26T07:02:54.606Z,688.00
2022-08-26T07:03:54.562Z,711.00
2022-08-26T07:04:54.605Z,640.00
2022-08-26T07:05:54.528Z,682.00
2022-08-26T07:06:54.491Z,778.00
2022-08-26T07:07:54.482Z,760.00
2022-08-26T07:08:54.471Z,970.00
2022-08-26T07:09:54.453Z,1029.00
2022-08-26T07:10:55.840Z,941.00
2022-08-26T07:11:54.430Z,679.00
2022-08-26T07:19:53.669Z,640.00
2022-08-26T07:20:54.655Z,685.00
2022-08-26T07:21:54.629Z,641.00
2022-08-26T07:22:54.607Z,605.00
2022-08-26T07:23:58.727Z,598.00
2022-08-26T07:24:54.586Z,542.00
2022-08-26T07:25:54.584Z,533.00
2022-08-26T07:26:54.559Z,509.00
2022-08-26T07:27:54.653Z,525.00
2022-08-26T07:28:54.533Z,541.00
2022-08-26T07:29:54.537Z,585.00
2022-08-26T07:30:54.591Z,686.00
2022-08-26T07:31:54.518Z,712.00
2022-08-26T07:33:00.968Z,636.00
2022-08-26T07:33:54.440Z,571.00
2022-08-26T07:34:54.437Z,588.00
2022-08-26T07:35:54.433Z,548.00
2022-08-26T07:36:55.356Z,566.00
2022-08-26T07:37:57.075Z,635.00
2022-08-26T07:38:54.397Z,708.00
2022-08-26T07:39:54.405Z,753.00
2022-08-26T07:40:54.429Z,757.00
2022-08-26T07:41:54.361Z,771.00
2022-08-26T07:42:54.353Z,843.00
2022-08-26T07:43:54.326Z,797.00
2022-08-26T07:44:54.311Z,787.00
2022-08-26T07:45:54.298Z,774.00
2022-08-26T07:46:54.277Z,696.00
2022-08-26T07:47:54.259Z,703.00
2022-08-26T07:48:54.250Z,741.00
2022-08-26T07:49:54.298Z,785.00
2022-08-26T07:50:54.275Z,732.00
2022-08-26T07:51:54.229Z,699.00
2022-08-26T07:52:54.196Z,679.00
2022-08-26T07:53:54.181Z,659.00
2022-08-26T07:54:54.208Z,656.00
2022-08-26T07:55:54.181Z,690.00
2022-08-26T07:56:54.141Z,704.00
2022-08-26T07:57:54.133Z,704.00
2022-08-26T07:58:54.123Z,644.00
2022-08-26T07:59:55.178Z,615.00
2022-08-26T08:00:54.116Z,589.00
2022-08-26T08:01:54.292Z,613.00
2022-08-26T08:02:54.064Z,609.00
2022-08-26T08:03:54.050Z,619.00
2022-08-26T08:04:54.071Z,631.00
2022-08-26T08:05:54.040Z,676.00
2022-08-26T08:06:54.023Z,692.00
2022-08-26T08:07:54.058Z,684.00
2022-08-26T08:08:53.994Z,689.00
2022-08-26T08:09:53.976Z,667.00
2022-08-26T08:10:54.032Z,656.00
2022-08-26T08:11:53.953Z,638.00
2022-08-26T08:12:53.933Z,635.00
2022-08-26T08:13:56.413Z,661.00
2022-08-26T08:14:53.918Z,668.00
2022-08-26T08:15:53.909Z,690.00
2022-08-26T08:16:54.744Z,680.00
2022-08-26T08:17:55.660Z,682.00
2022-08-26T08:18:53.896Z,679.00
2022-08-26T08:19:53.839Z,661.00
2022-08-26T08:20:59.417Z,648.00
2022-08-26T08:21:53.831Z,632.00
2022-08-26T08:22:53.889Z,608.00
2022-08-26T08:23:53.789Z,595.00
2022-08-26T08:24:53.784Z,584.00
2022-08-26T08:25:53.780Z,575.00
2022-08-26T08:26:53.755Z,603.00
2022-08-26T08:27:53.742Z,657.00
2022-08-26T08:28:53.737Z,684.00
2022-08-26T08:29:53.719Z,744.00
2022-08-26T08:30:53.766Z,785.00
2022-08-26T08:31:57.952Z,840.00
2022-08-26T08:32:53.679Z,857.00
2022-08-26T08:33:53.659Z,813.00
2022-08-26T08:34:53.654Z,802.00
2022-08-26T08:35:53.650Z,747.00
2022-08-26T08:36:53.839Z,800.00
2022-08-26T08:37:53.638Z,845.00
2022-08-26T08:38:53.596Z,872.00
2022-08-26T08:39:53.613Z,881.00
2022-08-26T08:40:53.595Z,884.00
2022-08-26T08:41:53.558Z,1045.00
2022-08-26T08:43:53.534Z,1115.00
2022-08-26T08:44:53.521Z,1216.00
2022-08-26T08:45:53.608Z,1199.00
2022-08-26T08:46:53.507Z,1131.00
2022-08-26T08:47:54.647Z,1099.00
2022-08-26T08:48:53.468Z,1127.00
2022-08-26T08:49:53.502Z,1124.00
2022-08-26T08:50:53.452Z,1032.00
2022-08-26T08:51:53.436Z,1016.00
2022-08-26T08:52:53.431Z,1065.00
2022-08-26T08:53:54.650Z,1105.00
2022-08-26T08:54:53.403Z,1140.00
2022-08-26T08:55:53.410Z,1135.00
2022-08-26T08:56:53.378Z,1237.00
2022-08-26T08:57:53.661Z,1267.00
2022-08-26T08:58:53.358Z,1187.00
2022-08-26T08:59:53.320Z,1171.00
2022-08-26T09:00:53.388Z,1165.00
2022-08-26T09:01:54.124Z,1164.00
2022-08-26T09:02:53.291Z,1281.00
2022-08-26T09:03:53.294Z,1206.00
2022-08-26T09:04:53.267Z,1287.00
2022-08-26T09:05:53.259Z,1420.00
2022-08-26T09:06:53.294Z,1398.00
2022-08-26T09:07:53.220Z,1536.00
2022-08-26T09:08:53.206Z,1338.00
2022-08-26T09:09:53.190Z,1346.00
2022-08-26T09:10:53.201Z,1479.00
2022-08-26T09:11:53.168Z,1677.00
2022-08-26T09:12:53.161Z,1969.00
2022-08-26T09:13:53.138Z,1952.00
2022-08-26T09:14:53.137Z,2222.00
2022-08-26T09:15:53.127Z,2130.00
2022-08-26T09:16:53.214Z,1947.00
2022-08-26T09:17:53.161Z,1748.00
2022-08-26T09:18:53.119Z,1655.00
2022-08-26T09:19:53.116Z,1685.00
2022-08-26T09:20:53.073Z,1925.00
2022-08-26T09:21:53.302Z,1964.00
2022-08-26T09:22:53.028Z,1934.00
2022-08-26T09:23:53.007Z,1876.00
2022-08-26T09:24:53.003Z,1845.00
2022-08-26T09:26:52.976Z,1811.00
2022-08-26T09:27:53.122Z,2026.00
2022-08-26T09:28:52.957Z,1747.00
2022-08-26T09:29:52.934Z,1596.00
2022-08-26T09:30:52.988Z,1559.00
2022-08-26T09:31:52.922Z,1627.00
2022-08-26T09:32:55.972Z,1501.00
2022-08-26T09:33:52.880Z,1530.00
2022-08-26T09:34:52.956Z,1593.00
2022-08-26T09:35:52.861Z,1890.00
2022-08-26T09:36:52.840Z,1824.00
2022-08-26T09:37:52.881Z,1633.00
2022-08-26T09:38:52.827Z,1467.00
2022-08-26T09:39:52.888Z,1444.00
2022-08-26T09:40:58.935Z,1492.00
2022-08-26T09:41:52.798Z,1374.00
2022-08-26T09:42:52.773Z,1306.00
2022-08-26T09:43:52.763Z,1229.00
2022-08-26T09:44:52.756Z,1294.00
2022-08-26T09:45:54.967Z,1403.00
2022-08-26T09:46:52.771Z,1480.00
2022-08-26T09:47:52.699Z,1611.00
2022-08-26T09:48:53.166Z,1753.00
2022-08-26T09:49:52.688Z,1643.00
2022-08-26T09:50:52.657Z,1694.00
2022-08-26T09:51:52.644Z,1700.00
2022-08-26T09:52:52.632Z,1537.00
2022-08-26T09:53:52.615Z,1534.00
2022-08-26T09:54:52.619Z,1408.00
2022-08-26T09:55:52.587Z,1344.00
2022-08-26T09:56:52.583Z,1243.00
2022-08-26T09:57:52.596Z,1162.00
2022-08-26T09:58:52.558Z,1128.00
2022-08-26T09:59:52.556Z,1218.00
2022-08-26T10:00:52.545Z,1208.00
2022-08-26T10:01:52.786Z,1289.00
2022-08-26T10:02:54.787Z,1266.00
2022-08-26T10:03:52.562Z,1261.00
2022-08-26T10:04:52.508Z,1291.00
2022-08-26T10:05:52.459Z,1397.00
2022-08-26T10:06:52.491Z,1490.00
2022-08-26T10:07:52.436Z,1395.00
2022-08-26T10:08:52.437Z,1518.00
2022-08-26T10:09:52.567Z,1553.00
2022-08-26T10:10:53.135Z,1565.00
2022-08-26T10:11:52.383Z,1519.00
2022-08-26T10:12:52.374Z,1457.00
2022-08-26T10:13:52.362Z,1468.00
2022-08-26T10:14:52.392Z,1513.00
2022-08-26T10:15:52.338Z,1635.00
2022-08-26T10:16:52.370Z,1689.00
2022-08-26T10:17:52.375Z,1707.00
2022-08-26T10:18:54.726Z,1792.00
2022-08-26T10:19:57.057Z,1895.00
2022-08-26T10:20:52.278Z,2158.00
2022-08-26T10:21:54.039Z,2295.00
2022-08-26T10:22:52.246Z,2226.00
2022-08-26T10:23:52.238Z,2072.00
2022-08-26T10:24:55.177Z,2096.00
2022-08-26T10:25:52.199Z,2072.00
2022-08-26T10:26:52.211Z,2180.00
2022-08-26T10:27:53.815Z,2166.00
2022-08-26T10:28:52.196Z,2094.00
2022-08-26T10:29:52.529Z,2206.00
2022-08-26T10:30:52.148Z,2187.00
2022-08-26T10:31:52.178Z,1967.00
2022-08-26T10:32:52.118Z,1932.00
2022-08-26T10:33:55.456Z,2031.00
2022-08-26T10:34:52.120Z,2326.00
2022-08-26T10:35:52.097Z,2519.00
2022-08-26T10:37:14.785Z,2417.00
2022-08-26T10:37:52.056Z,2467.00
2022-08-26T10:38:52.039Z,2647.00
2022-08-26T10:39:56.962Z,2435.00
2022-08-26T10:40:52.076Z,2141.00
2022-08-26T10:41:52.048Z,2086.00
2022-08-26T10:42:51.997Z,1982.00
2022-08-26T10:43:51.966Z,2085.00
2022-08-26T10:44:51.963Z,2029.00
2022-08-26T10:45:52.036Z,1869.00
2022-08-26T10:46:51.938Z,1721.00
2022-08-26T10:47:51.924Z,1621.00
2022-08-26T10:48:52.095Z,1534.00
2022-08-26T10:49:51.898Z,1478.00
2022-08-26T10:50:51.903Z,1544.00
2022-08-26T10:51:51.891Z,1903.00
2022-08-26T10:52:51.861Z,1989.00
2022-08-26T10:53:51.896Z,2536.00
2022-08-26T10:54:51.844Z,2504.00
2022-08-26T10:55:51.834Z,2320.00
2022-08-26T10:56:51.826Z,1934.00
2022-08-26T10:57:51.832Z,1908.00
2022-08-26T10:58:51.780Z,1977.00
2022-08-26T10:59:51.796Z,1883.00
2022-08-26T11:00:51.814Z,1735.00
2022-08-26T11:01:52.567Z,1712.00
2022-08-26T11:02:51.745Z,1781.00
2022-08-26T11:03:51.845Z,2042.00
2022-08-26T11:04:51.781Z,2254.00
2022-08-26T11:05:51.711Z,2242.00
2022-08-26T11:06:51.679Z,2001.00
2022-08-26T11:07:51.668Z,2391.00
2022-08-26T11:08:51.667Z,2769.00
2022-08-26T11:09:51.683Z,2446.00
2022-08-26T11:10:51.677Z,2024.00
2022-08-26T11:11:51.636Z,2012.00
2022-08-26T11:12:51.598Z,2283.00
2022-08-26T11:13:51.610Z,2822.00
2022-08-26T11:14:56.211Z,2588.00
2022-08-26T11:15:51.600Z,2112.00
2022-08-26T11:16:51.622Z,1869.00
2022-08-26T11:17:51.558Z,1992.00
2022-08-26T11:18:51.524Z,2420.00
2022-08-26T11:20:01.044Z,2323.00
2022-08-26T11:20:51.571Z,2304.00
2022-08-26T11:21:51.503Z,2118.00
2022-08-26T11:22:51.484Z,1938.00
2022-08-26T11:23:52.924Z,2061.00
2022-08-26T11:24:51.485Z,1950.00
2022-08-26T11:25:51.441Z,1850.00
2022-08-26T11:26:56.182Z,1776.00
2022-08-26T11:27:51.418Z,2178.00
2022-08-26T11:28:51.403Z,2501.00
2022-08-26T11:29:51.405Z,2328.00
2022-08-26T11:30:56.991Z,2158.00
2022-08-26T11:31:51.416Z,2290.00
2022-08-26T11:32:51.341Z,2422.00
2022-08-26T11:33:51.335Z,2646.00
2022-08-26T11:34:51.344Z,2627.00
2022-08-26T11:35:52.205Z,2457.00
2022-08-26T11:36:51.295Z,2504.00
2022-08-26T11:37:51.277Z,3526.00
2022-08-26T11:38:51.273Z,4766.00
2022-08-26T11:39:54.668Z,4201.00
2022-08-26T11:40:51.252Z,2065.00
2022-08-26T11:41:52.633Z,14762.00
2022-08-26T11:42:51.236Z,10814.00
2022-08-26T11:43:51.226Z,6021.00
2022-08-26T11:44:51.198Z,2242.00
2022-08-26T11:45:51.226Z,4109.00
2022-08-26T11:46:51.164Z,25116.00
2022-08-26T11:47:51.151Z,15072.00
2022-08-26T11:48:51.132Z,9199.00
2022-08-26T11:49:51.344Z,7063.00
2022-08-26T11:50:51.114Z,5348.00
2022-08-26T11:51:51.097Z,3861.00
2022-08-26T11:52:51.082Z,2894.00
2022-08-26T11:53:51.078Z,2504.00
2022-08-26T11:54:51.077Z,2617.00
2022-08-26T11:55:51.045Z,3171.00
2022-08-26T11:56:51.035Z,2948.00
2022-08-26T11:57:51.021Z,2611.00
2022-08-26T11:58:51.048Z,2440.00
2022-08-26T11:59:51.020Z,1955.00
2022-08-26T12:00:50.978Z,2039.00
2022-08-26T12:01:50.984Z,2554.00
2022-08-26T12:02:50.988Z,2868.00
2022-08-26T12:03:51.117Z,1979.00
2022-08-26T12:04:51.148Z,3499.00
2022-08-26T12:05:51.212Z,5871.00
2022-08-26T12:06:50.949Z,3492.00
2022-08-26T12:07:50.897Z,2500.00
2022-08-26T12:08:50.900Z,2482.00
2022-08-26T12:09:50.892Z,2765.00
2022-08-26T12:10:50.850Z,2932.00
2022-08-26T12:11:50.851Z,2789.00
2022-08-26T12:12:50.828Z,2552.00
2022-08-26T12:13:50.825Z,2576.00
2022-08-26T12:14:50.814Z,2844.00
2022-08-26T12:15:50.798Z,3191.00
2022-08-26T12:16:50.826Z,2881.00
2022-08-26T12:17:54.453Z,2689.00
2022-08-26T12:18:50.751Z,3257.00
2022-08-26T12:19:50.748Z,3345.00
2022-08-26T12:20:50.894Z,2936.00
2022-08-26T12:21:50.716Z,2756.00
2022-08-26T12:22:50.707Z,2577.00
2022-08-26T12:23:50.695Z,2545.00
2022-08-26T12:24:50.691Z,2716.00
2022-08-26T12:25:50.665Z,2745.00
2022-08-26T12:26:50.645Z,2741.00
2022-08-26T12:27:53.638Z,2816.00
2022-08-26T12:28:50.622Z,2721.00
2022-08-26T12:29:50.632Z,2283.00
2022-08-26T12:30:50.597Z,2304.00
2022-08-26T12:31:50.624Z,2333.00
2022-08-26T12:32:57.451Z,2071.00
2022-08-26T12:33:50.562Z,1703.00
2022-08-26T12:34:50.554Z,1764.00
2022-08-26T12:35:54.735Z,1699.00
2022-08-26T12:36:50.566Z,1810.00
2022-08-26T12:37:50.535Z,1888.00
2022-08-26T12:38:50.493Z,2061.00
2022-08-26T12:39:50.550Z,2470.00
2022-08-26T12:40:50.557Z,2662.00
2022-08-26T12:41:50.475Z,2296.00
2022-08-26T12:42:50.439Z,2372.00
2022-08-26T12:43:50.444Z,2649.00
2022-08-26T12:44:53.250Z,2337.00
2022-08-26T12:45:50.539Z,2191.00
2022-08-26T12:46:50.387Z,2362.00
2022-08-26T12:47:50.380Z,2541.00
2022-08-26T12:48:50.422Z,2408.00
2022-08-26T12:49:50.480Z,2514.00
2022-08-26T12:50:50.335Z,2860.00
2022-08-26T12:51:50.351Z,2817.00
2022-08-26T12:52:50.318Z,2613.00
2022-08-26T12:53:50.308Z,2888.00
2022-08-26T12:54:53.571Z,2896.00
2022-08-26T12:55:50.297Z,2766.00
2022-08-26T12:56:50.258Z,2883.00
2022-08-26T12:57:50.264Z,3208.00
2022-08-26T12:58:50.265Z,2997.00
2022-08-26T12:59:50.229Z,2632.00
2022-08-26T13:00:50.402Z,2866.00
2022-08-26T13:01:50.312Z,2570.00